Time;durP1;ratioP1;P1;durP2;ratioP2;P2;SDS_P1;SDS_P2;PMS_P1;PMS_P2;Temp;Humidity;BMP_temperature;BMP_pressure;BME280_temperature;BME280_humidity;BME280_pressure;Samples;Min_cycle;Max_cycle;Signal;HPM_P1;HPM_P2
2023/07/19 00:01:24;;;;;;;0.70;0.70;;;;;;;28.49;53.65;99329.63;5056802;27;20237;-63
2023/07/19 00:03:51;;;;;;;0.60;0.60;;;;;;;28.43;53.19;99319.75;5070103;27;20205;-64
2023/07/19 00:06:18;;;;;;;1.60;0.73;;;;;;;28.31;53.73;99315.72;5098444;27;20201;-63
2023/07/19 00:08:45;;;;;;;1.10;0.80;;;;;;;28.28;53.84;99311.63;5107885;27;20198;-64
2023/07/19 00:11:11;;;;;;;0.63;0.63;;;;;;;28.19;53.97;99312.59;5083022;27;20201;-63
2023/07/19 00:13:38;;;;;;;0.80;0.80;;;;;;;28.15;54.21;99303.34;5081568;27;20197;-64
2023/07/19 00:16:06;;;;;;;1.37;0.90;;;;;;;28.06;54.45;99306.94;5047065;27;20212;-63
2023/07/19 00:18:33;;;;;;;0.70;0.70;;;;;;;28.00;54.21;99303.09;5094521;27;20228;-63
2023/07/19 00:21:00;;;;;;;0.73;0.73;;;;;;;27.97;55.08;99303.41;5073410;27;20694;-63
2023/07/19 00:23:27;;;;;;;0.70;0.70;;;;;;;27.96;54.78;99304.41;5077364;27;20200;-64
2023/07/19 00:25:53;;;;;;;1.80;1.00;;;;;;;27.98;54.47;99301.63;5059801;27;20201;-64
2023/07/19 00:28:20;;;;;;;2.87;1.10;;;;;;;28.00;55.17;99302.28;5062726;27;20208;-64
2023/07/19 00:30:47;;;;;;;1.10;1.00;;;;;;;28.00;54.44;99310.19;5100342;27;20197;-63
2023/07/19 00:33:15;;;;;;;1.07;0.97;;;;;;;28.03;54.88;99310.69;5057384;27;20197;-63
2023/07/19 00:35:42;;;;;;;4.53;0.90;;;;;;;28.06;54.58;99307.75;5068174;27;20201;-64
2023/07/19 00:38:09;;;;;;;2.23;0.87;;;;;;;28.11;54.84;99310.72;5055929;27;20204;-63
2023/07/19 00:40:35;;;;;;;3.67;0.90;;;;;;;28.08;55.70;99289.13;5128366;27;20202;-64
2023/07/19 00:43:08;;;;;;;0.80;0.80;;;;;;;28.21;54.30;99299.25;5092382;27;20592;-63
2023/07/19 00:45:34;;;;;;;0.70;0.70;;;;;;;28.24;54.63;99298.94;5095865;27;20226;-63
2023/07/19 00:48:01;;;;;;;0.77;0.77;;;;;;;28.25;55.27;99300.56;5047139;27;20725;-63
2023/07/19 00:50:30;;;;;;;0.67;0.67;;;;;;;28.27;55.33;99299.44;5077594;27;20245;-64
2023/07/19 00:52:57;;;;;;;0.70;0.70;;;;;;;28.28;55.22;99302.88;5047712;27;20259;-64
2023/07/19 00:55:24;;;;;;;0.87;0.87;;;;;;;28.26;55.09;99302.22;5052291;27;20196;-64
2023/07/19 00:57:50;;;;;;;0.90;0.90;;;;;;;28.22;54.95;99296.44;5112220;27;20204;-64
2023/07/19 01:00:19;;;;;;;0.80;0.80;;;;;;;28.21;55.39;99296.63;5100100;27;20209;-64
2023/07/19 01:02:46;;;;;;;3.10;0.90;;;;;;;28.23;54.96;99302.53;5076468;27;20208;-64
2023/07/19 01:05:13;;;;;;;0.70;0.70;;;;;;;28.17;55.16;99289.00;5106492;27;20193;-64
2023/07/19 01:07:41;;;;;;;0.70;0.70;;;;;;;28.19;55.37;99295.94;5091062;27;20660;-63
2023/07/19 01:10:09;;;;;;;0.73;0.60;;;;;;;28.14;55.52;99288.53;5097662;27;20207;-64
2023/07/19 01:12:36;;;;;;;1.20;1.10;;;;;;;28.12;55.85;99296.56;5097043;27;20193;-64
2023/07/19 01:15:08;;;;;;;1.00;0.90;;;;;;;28.10;55.45;99288.00;5086603;27;20207;-63
2023/07/19 01:17:35;;;;;;;0.80;0.80;;;;;;;28.10;55.33;99288.00;5084639;27;20319;-65
2023/07/19 01:20:02;;;;;;;0.70;0.70;;;;;;;27.99;55.67;99280.34;5075337;27;20201;-63
2023/07/19 01:22:33;;;;;;;0.60;0.60;;;;;;;27.80;56.84;99280.63;5093037;27;20216;-63
2023/07/19 01:25:00;;;;;;;0.80;0.80;;;;;;;27.66;56.67;99283.03;5058966;27;20291;-63
2023/07/19 01:27:27;;;;;;;0.90;0.90;;;;;;;27.53;57.49;99271.09;5053701;27;20208;-63
2023/07/19 01:29:53;;;;;;;1.33;0.60;;;;;;;27.53;57.22;99280.81;5072706;27;20197;-63
2023/07/19 01:32:20;;;;;;;5.00;0.60;;;;;;;27.42;57.95;99283.69;5049334;27;20197;-63
2023/07/19 01:34:47;;;;;;;0.70;0.70;;;;;;;27.37;58.53;99293.84;5050015;27;20626;-63
2023/07/19 01:37:14;;;;;;;0.80;0.80;;;;;;;27.39;58.32;99291.91;5066814;27;20198;-63
2023/07/19 01:39:42;;;;;;;0.50;0.50;;;;;;;27.40;58.85;99289.09;5051987;27;20197;-63
2023/07/19 01:42:09;;;;;;;0.80;0.80;;;;;;;27.32;58.71;99281.16;5053579;27;20219;-63
2023/07/19 01:44:35;;;;;;;0.60;0.60;;;;;;;27.25;59.32;99284.56;5058267;27;20211;-63
2023/07/19 01:47:02;;;;;;;0.80;0.80;;;;;;;27.24;59.40;99280.28;5064349;27;20204;-64
2023/07/19 01:49:29;;;;;;;0.83;0.83;;;;;;;27.19;59.66;99286.00;5056772;27;20193;-63
2023/07/19 01:51:56;;;;;;;0.60;0.60;;;;;;;27.19;60.15;99285.19;5102431;27;20273;-64
2023/07/19 01:54:22;;;;;;;0.80;0.80;;;;;;;27.18;59.66;99280.88;5062891;27;21012;-63
2023/07/19 01:56:50;;;;;;;0.70;0.70;;;;;;;27.09;60.23;99286.09;5082770;27;20249;-64
2023/07/19 01:59:17;;;;;;;1.17;0.97;;;;;;;27.04;59.84;99283.09;5061586;27;20671;-63
2023/07/19 02:01:44;;;;;;;0.97;0.87;;;;;;;27.00;60.49;99279.13;5082676;27;20203;-64
2023/07/19 02:04:11;;;;;;;4.10;0.90;;;;;;;26.91;60.70;99280.06;5066099;27;20193;-63
2023/07/19 02:06:38;;;;;;;0.60;0.60;;;;;;;26.84;60.98;99281.66;5080374;27;20197;-63
2023/07/19 02:09:05;;;;;;;0.97;0.87;;;;;;;26.80;61.22;99282.88;5067122;27;20664;-63
2023/07/19 02:11:31;;;;;;;0.70;0.70;;;;;;;26.73;61.83;99281.84;5050839;27;20213;-63
2023/07/19 02:13:59;;;;;;;0.80;0.80;;;;;;;26.72;61.81;99284.63;5091173;27;20576;-63
2023/07/19 02:16:26;;;;;;;0.63;0.63;;;;;;;26.65;61.68;99281.78;5090654;27;20201;-63
2023/07/19 02:18:53;;;;;;;0.50;0.50;;;;;;;26.61;62.15;99280.41;5127728;27;20193;-64
2023/07/19 02:21:20;;;;;;;1.00;1.00;;;;;;;26.58;62.61;99276.28;5053653;27;20204;-63
2023/07/19 02:23:46;;;;;;;2.27;0.80;;;;;;;26.49;62.60;99277.19;5049329;27;20217;-63
2023/07/19 02:26:13;;;;;;;0.93;0.80;;;;;;;26.46;63.39;99276.66;5067222;27;20196;-63
2023/07/19 02:28:40;;;;;;;0.80;0.80;;;;;;;26.44;63.08;99275.97;5071425;27;20193;-64
2023/07/19 02:31:08;;;;;;;0.83;0.60;;;;;;;26.47;63.16;99268.63;5050570;27;20211;-64
2023/07/19 02:33:35;;;;;;;0.80;0.80;;;;;;;26.48;63.50;99270.28;5079758;27;20569;-64
2023/07/19 02:36:02;;;;;;;0.93;0.70;;;;;;;26.50;63.45;99278.00;5066712;27;20693;-64
2023/07/19 02:38:28;;;;;;;0.70;0.70;;;;;;;26.45;63.57;99265.31;5085336;27;20209;-64
2023/07/19 02:40:59;;;;;;;0.70;0.70;;;;;;;26.50;63.14;99289.34;5093519;27;20201;-63
2023/07/19 02:43:25;;;;;;;0.70;0.70;;;;;;;26.34;63.73;99291.81;5064693;27;20304;-63
2023/07/19 02:45:53;;;;;;;0.50;0.50;;;;;;;26.30;64.34;99287.81;5086751;27;20190;-63
2023/07/19 02:48:22;;;;;;;0.97;0.97;;;;;;;26.31;64.34;99283.41;5081282;27;20254;-63
2023/07/19 02:50:50;;;;;;;1.80;0.93;;;;;;;26.33;64.10;99291.97;5076099;27;20204;-63
2023/07/19 02:53:17;;;;;;;0.80;0.80;;;;;;;26.35;64.44;99285.59;5100594;27;20674;-64
2023/07/19 02:55:44;;;;;;;0.97;0.97;;;;;;;26.36;64.63;99275.91;5067618;27;20197;-63
2023/07/19 02:58:11;;;;;;;0.73;0.73;;;;;;;26.33;63.92;99281.47;5077460;27;20200;-63
2023/07/19 03:00:40;;;;;;;0.70;0.70;;;;;;;26.20;65.01;99286.25;5079613;27;20205;-63
2023/07/19 03:03:07;;;;;;;0.80;0.80;;;;;;;26.15;65.13;99288.44;5057760;27;20280;-63
2023/07/19 03:05:39;;;;;;;0.90;0.90;;;;;;;26.14;65.24;99286.81;5083059;27;20220;-65
2023/07/19 03:08:06;;;;;;;0.67;0.67;;;;;;;26.16;65.22;99285.72;5077634;27;20190;-63
2023/07/19 03:10:33;;;;;;;1.60;0.70;;;;;;;26.15;64.99;99283.19;5087813;27;20208;-64
2023/07/19 03:13:00;;;;;;;1.07;0.90;;;;;;;26.17;64.82;99276.88;5083838;27;20200;-64
2023/07/19 03:15:27;;;;;;;1.97;0.87;;;;;;;26.17;65.34;99287.38;5054449;27;20203;-63
2023/07/19 03:17:54;;;;;;;1.07;0.80;;;;;;;26.17;65.09;99291.81;5074654;27;20251;-63
2023/07/19 03:20:21;;;;;;;0.93;0.93;;;;;;;26.20;65.31;99286.25;5062579;27;20230;-63
2023/07/19 03:22:49;;;;;;;0.90;0.90;;;;;;;26.21;64.83;99293.16;5098472;27;20578;-63
2023/07/19 03:25:16;;;;;;;0.80;0.80;;;;;;;26.19;65.43;99290.69;5077866;27;20198;-63
2023/07/19 03:27:43;;;;;;;1.07;0.70;;;;;;;26.15;65.74;99291.06;5091000;27;20197;-64
2023/07/19 03:30:11;;;;;;;0.80;0.80;;;;;;;26.16;65.16;99292.75;5072533;27;20196;-63
2023/07/19 03:32:37;;;;;;;0.60;0.60;;;;;;;26.19;66.38;99287.22;5097255;27;20200;-64
2023/07/19 03:35:05;;;;;;;0.77;0.77;;;;;;;26.20;65.80;99286.25;5096814;27;20212;-64
2023/07/19 03:37:32;;;;;;;1.03;0.90;;;;;;;26.18;65.88;99285.56;5074331;27;20583;-63
2023/07/19 03:40:00;;;;;;;1.13;1.07;;;;;;;26.20;66.02;99294.13;5059257;27;20224;-64
2023/07/19 03:42:27;;;;;;;1.57;1.47;;;;;;;26.24;66.43;99292.84;5061642;27;20229;-64
2023/07/19 03:44:53;;;;;;;1.10;1.10;;;;;;;26.30;66.50;99290.44;5054486;27;20201;-64
2023/07/19 03:47:20;;;;;;;0.80;0.80;;;;;;;26.37;65.92;99282.81;5054874;27;20205;-63
2023/07/19 03:49:47;;;;;;;0.90;0.90;;;;;;;26.47;65.67;99283.56;5091022;27;20208;-63
2023/07/19 03:52:14;;;;;;;1.47;1.43;;;;;;;26.59;65.37;99287.66;5070567;27;20196;-63
2023/07/19 03:54:40;;;;;;;1.87;0.80;;;;;;;26.65;64.79;99286.22;5065493;27;20204;-63
2023/07/19 03:57:09;;;;;;;0.63;0.63;;;;;;;26.73;64.05;99279.19;5053419;27;20253;-63
2023/07/19 03:59:35;;;;;;;1.00;0.90;;;;;;;26.83;64.69;99279.16;5075117;27;20201;-63
2023/07/19 04:02:02;;;;;;;7.00;0.70;;;;;;;26.94;65.05;99282.38;5065774;27;20581;-63
2023/07/19 04:04:29;;;;;;;0.57;0.57;;;;;;;27.00;64.28;99271.25;5050951;27;20679;-63
2023/07/19 04:06:56;;;;;;;0.87;0.87;;;;;;;27.19;64.13;99275.47;5073022;27;20293;-64
2023/07/19 04:09:23;;;;;;;0.83;0.83;;;;;;;27.32;63.81;99275.06;5047385;27;20228;-63
2023/07/19 04:11:49;;;;;;;0.70;0.70;;;;;;;27.47;64.33;99273.53;5064466;27;20233;-64
2023/07/19 04:14:18;;;;;;;0.73;0.67;;;;;;;27.59;61.74;99272.31;5061672;27;20289;-63
2023/07/19 04:16:46;;;;;;;0.80;0.80;;;;;;;27.70;62.83;99284.34;5054649;27;20703;-63
2023/07/19 04:19:13;;;;;;;0.50;0.50;;;;;;;27.81;60.83;99277.00;5047030;27;20205;-63
2023/07/19 04:21:39;;;;;;;0.80;0.80;;;;;;;27.94;63.52;99272.13;5081443;27;20198;-63
2023/07/19 04:24:07;;;;;;;0.50;0.50;;;;;;;28.12;63.01;99279.94;5070478;27;20225;-63
2023/07/19 04:26:33;;;;;;;0.90;0.80;;;;;;;28.28;62.18;99284.41;5063544;27;20250;-64
2023/07/19 04:29:00;;;;;;;0.70;0.70;;;;;;;28.47;62.51;99284.13;5094457;27;20197;-63
2023/07/19 04:31:28;;;;;;;0.60;0.60;;;;;;;28.61;62.42;99267.66;5065511;27;20216;-63
2023/07/19 04:33:55;;;;;;;0.73;0.73;;;;;;;28.85;59.32;99270.34;5069759;27;20204;-64
2023/07/19 04:36:22;;;;;;;0.43;0.43;;;;;;;28.90;57.31;99272.47;5056472;27;20215;-64
2023/07/19 04:38:48;;;;;;;0.57;0.52;;;;;;;28.93;59.53;99267.69;5095260;27;20196;-65
2023/07/19 04:41:15;;;;;;;0.83;0.73;;;;;;;29.09;59.21;99278.25;5047035;27;20197;-64
2023/07/19 04:43:44;;;;;;;1.10;1.00;;;;;;;29.24;58.08;99275.75;5042281;27;20227;-65
2023/07/19 04:46:10;;;;;;;6.15;0.80;;;;;;;29.30;56.26;99267.19;5076018;27;20197;-64
2023/07/19 04:48:39;;;;;;;0.68;0.68;;;;;;;29.33;57.09;99263.38;5047121;27;20610;-65
2023/07/19 04:51:06;;;;;;;2.15;0.68;;;;;;;29.46;56.87;99271.59;5051873;27;20201;-65
2023/07/19 04:53:33;;;;;;;0.80;0.80;;;;;;;29.61;57.66;99264.59;5051411;27;20284;-65
2023/07/19 04:56:00;;;;;;;0.75;0.75;;;;;;;29.80;56.12;99269.50;5062959;27;20656;-64
2023/07/19 04:58:27;;;;;;;0.43;0.43;;;;;;;30.00;54.97;99265.47;5057562;27;20217;-65
2023/07/19 05:00:54;;;;;;;0.57;0.57;;;;;;;30.11;54.15;99266.91;5049909;27;20205;-65
2023/07/19 05:03:21;;;;;;;2.13;1.08;;;;;;;30.15;54.26;99271.66;5055733;27;20226;-65
2023/07/19 05:05:50;;;;;;;1.13;0.55;;;;;;;30.27;54.49;99271.28;5050424;27;20207;-65
2023/07/19 05:08:17;;;;;;;0.70;0.70;;;;;;;30.36;56.60;99271.03;5056998;27;20586;-65
2023/07/19 05:10:43;;;;;;;1.02;1.02;;;;;;;30.63;53.11;99277.69;5090155;27;20245;-68
2023/07/19 05:13:10;;;;;;;1.55;0.70;;;;;;;30.80;54.68;99284.47;5077707;27;20200;-64
2023/07/19 05:15:37;;;;;;;0.60;0.60;;;;;;;31.05;51.92;99275.34;5082121;27;20864;-64
2023/07/19 05:18:04;;;;;;;0.63;0.63;;;;;;;31.50;52.12;99276.25;5105537;27;20297;-64
2023/07/19 05:20:30;;;;;;;1.85;1.05;;;;;;;31.78;50.35;99279.91;5069010;27;20265;-65
2023/07/19 05:22:59;;;;;;;0.65;0.65;;;;;;;32.05;50.14;99281.88;5054772;27;20696;-64
2023/07/19 05:25:26;;;;;;;0.75;0.75;;;;;;;32.30;48.54;99281.56;5117228;27;20197;-62
2023/07/19 05:27:53;;;;;;;1.15;0.70;;;;;;;32.57;48.47;99291.47;5062073;27;20207;-62
2023/07/19 05:30:21;;;;;;;0.55;0.55;;;;;;;32.73;47.56;99285.91;5109911;27;20213;-63
2023/07/19 05:32:48;;;;;;;1.02;1.02;;;;;;;32.81;47.24;99293.72;5105245;27;20216;-62
2023/07/19 05:35:15;;;;;;;0.70;0.70;;;;;;;33.01;46.78;99294.72;5082998;27;20625;-62
2023/07/19 05:37:42;;;;;;;0.80;0.80;;;;;;;33.22;45.20;99297.34;5108569;27;20668;-62
2023/07/19 05:40:11;;;;;;;0.50;0.50;;;;;;;33.46;45.05;99290.78;5087309;27;20196;-62
2023/07/19 05:42:38;;;;;;;0.77;0.77;;;;;;;33.66;44.16;99285.59;5116157;27;20243;-62
2023/07/19 05:45:06;;;;;;;0.88;0.57;;;;;;;33.88;43.32;99292.47;5129236;27;20197;-62
2023/07/19 05:47:33;;;;;;;0.80;0.80;;;;;;;34.13;42.95;99290.13;5109169;27;20198;-62
2023/07/19 05:50:00;;;;;;;0.88;0.88;;;;;;;34.34;42.19;99286.50;5087527;27;20205;-62
2023/07/19 05:52:28;;;;;;;0.65;0.65;;;;;;;34.45;42.32;99272.59;5138382;27;20589;-62
2023/07/19 05:54:55;;;;;;;0.80;0.80;;;;;;;34.62;44.05;99284.53;5068452;27;20713;-62
2023/07/19 05:57:23;;;;;;;0.70;0.70;;;;;;;34.76;41.46;99283.53;5068297;27;20582;-63
2023/07/19 05:59:50;;;;;;;1.25;0.90;;;;;;;34.92;42.46;99288.44;5089118;27;20204;-61
2023/07/19 06:02:17;;;;;;;0.70;0.70;;;;;;;34.98;40.64;99294.78;5118942;27;20193;-61
2023/07/19 06:04:44;;;;;;;0.82;0.82;;;;;;;35.06;42.00;99297.28;5113961;27;20220;-63
2023/07/19 06:07:11;;;;;;;5.47;0.85;;;;;;;35.14;41.77;99297.91;5118336;27;20201;-63
2023/07/19 06:09:38;;;;;;;0.57;0.57;;;;;;;35.32;41.83;99291.91;5153633;27;20276;-62
2023/07/19 06:12:05;;;;;;;0.65;0.65;;;;;;;35.53;40.10;99290.84;5105180;27;20197;-62
2023/07/19 06:14:33;;;;;;;0.73;0.73;;;;;;;35.66;39.07;99293.53;5104170;27;20659;-63
2023/07/19 06:17:00;;;;;;;0.70;0.70;;;;;;;35.85;39.89;99281.97;5087210;27;20264;-60
2023/07/19 06:19:27;;;;;;;0.70;0.70;;;;;;;36.05;39.89;99285.38;5041561;27;20208;-61
2023/07/19 06:21:54;;;;;;;0.70;0.70;;;;;;;36.18;37.83;99271.16;5050347;27;20193;-64
2023/07/19 06:24:21;;;;;;;1.23;1.23;;;;;;;36.21;37.76;99271.56;5050040;27;20220;-61
2023/07/19 06:26:47;;;;;;;0.75;0.73;;;;;;;36.35;38.81;99280.31;5087429;27;20200;-60
2023/07/19 06:29:14;;;;;;;0.80;0.70;;;;;;;36.48;40.08;99287.44;5076221;27;20201;-60
2023/07/19 06:31:42;;;;;;;1.15;0.90;;;;;;;36.58;38.73;99282.44;5080055;27;20204;-60
2023/07/19 06:34:09;;;;;;;0.68;0.68;;;;;;;36.64;37.04;99286.94;5086955;27;20196;-62
2023/07/19 06:36:36;;;;;;;2.95;0.95;;;;;;;36.61;37.40;99290.03;5093994;27;20197;-62
2023/07/19 06:39:03;;;;;;;1.13;0.95;;;;;;;36.79;38.69;99292.78;5109895;27;20300;-62
2023/07/19 06:41:30;;;;;;;0.65;0.65;;;;;;;36.81;36.71;99280.81;5087670;27;20664;-62
2023/07/19 06:43:57;;;;;;;1.02;0.90;;;;;;;36.61;37.78;99279.34;5067022;27;20344;-62
2023/07/19 06:46:24;;;;;;;0.70;0.70;;;;;;;36.73;39.15;99283.78;5093039;27;20239;-62
2023/07/19 06:48:52;;;;;;;2.05;1.08;;;;;;;36.96;38.47;99288.53;5078118;27;20204;-62
2023/07/19 06:51:18;;;;;;;0.80;0.80;;;;;;;37.14;38.40;99288.59;5051823;27;20369;-64
2023/07/19 06:53:45;;;;;;;0.98;0.98;;;;;;;37.01;36.08;99286.03;5128209;27;20197;-64
2023/07/19 06:56:12;;;;;;;0.50;0.50;;;;;;;37.25;36.13;99290.56;5065340;27;20197;-65
2023/07/19 06:58:39;;;;;;;0.88;0.88;;;;;;;37.43;35.40;99283.56;5047058;27;20200;-65
2023/07/19 07:01:05;;;;;;;3.20;0.90;;;;;;;37.20;35.07;99279.69;5061963;27;20431;-63
2023/07/19 07:03:34;;;;;;;0.80;0.80;;;;;;;37.53;37.03;99270.53;5064139;27;20276;-64
2023/07/19 07:06:02;;;;;;;0.82;0.82;;;;;;;37.85;35.53;99258.63;5043452;27;20197;-63
2023/07/19 07:08:29;;;;;;;0.80;0.80;;;;;;;38.09;34.54;99255.03;5094494;27;20201;-63
2023/07/19 07:10:56;;;;;;;0.60;0.60;;;;;;;38.31;33.41;99269.56;5065128;27;20219;-63
2023/07/19 07:13:22;;;;;;;2.95;0.80;;;;;;;38.40;33.60;99275.44;5082324;27;20220;-63
2023/07/19 07:15:52;;;;;;;0.68;0.68;;;;;;;38.50;32.85;99273.00;5097063;27;20531;-62
2023/07/19 07:18:19;;;;;;;4.05;0.90;;;;;;;38.67;33.18;99262.44;5051074;27;20667;-63
2023/07/19 07:20:46;;;;;;;3.45;0.90;;;;;;;38.72;33.22;99271.41;5129388;27;20201;-62
2023/07/19 07:23:14;;;;;;;0.57;0.50;;;;;;;38.92;32.38;99264.94;5049289;27;20225;-63
2023/07/19 07:25:41;;;;;;;1.17;0.70;;;;;;;39.20;31.82;99273.91;5133352;27;20204;-63
2023/07/19 07:28:08;;;;;;;1.25;0.82;;;;;;;39.45;32.03;99270.22;5090323;27;20541;-63
2023/07/19 07:30:36;;;;;;;0.70;0.70;;;;;;;39.66;31.52;99256.97;5085116;27;20200;-62
2023/07/19 07:33:03;;;;;;;0.80;0.80;;;;;;;39.85;30.20;99257.63;5100172;27;20204;-62
2023/07/19 07:35:30;;;;;;;0.77;0.77;;;;;;;39.69;30.81;99256.53;5049476;27;20691;-63
2023/07/19 07:37:57;;;;;;;0.60;0.60;;;;;;;39.75;29.55;99254.75;5055801;27;20212;-63
2023/07/19 07:40:25;;;;;;;0.73;0.73;;;;;;;39.61;30.02;99253.38;5098933;27;20208;-63
2023/07/19 07:42:52;;;;;;;0.90;0.90;;;;;;;39.61;30.34;99253.38;5129579;27;20208;-63
2023/07/19 07:45:19;;;;;;;1.10;1.05;;;;;;;39.88;30.63;99255.28;5116303;27;20237;-63
2023/07/19 07:47:46;;;;;;;0.57;0.57;;;;;;;40.06;29.73;99251.59;5060854;27;20208;-63
2023/07/19 07:50:12;;;;;;;1.02;0.73;;;;;;;39.67;29.51;99252.41;5081718;27;20639;-62
2023/07/19 07:52:39;;;;;;;0.75;0.75;;;;;;;39.05;30.75;99249.44;5111530;27;20197;-62
2023/07/19 07:55:07;;;;;;;1.00;0.65;;;;;;;39.32;30.92;99250.59;5048793;27;20204;-63
2023/07/19 07:57:37;;;;;;;1.65;0.90;;;;;;;39.62;30.62;99249.63;5105763;27;20284;-63
2023/07/19 08:00:07;;;;;;;0.73;0.73;;;;;;;39.54;28.75;99266.09;5103978;27;20201;-64
2023/07/19 08:02:34;;;;;;;0.65;0.65;;;;;;;39.75;28.68;99254.75;5068662;27;20688;-62
2023/07/19 08:05:01;;;;;;;0.63;0.63;;;;;;;39.93;26.46;99254.59;5073414;27;20452;-63
2023/07/19 08:07:27;;;;;;;1.38;1.00;;;;;;;40.09;28.44;99259.19;5126566;27;20205;-62
2023/07/19 08:09:54;;;;;;;1.05;0.77;;;;;;;39.99;28.22;99256.31;5058955;27;20205;-63
2023/07/19 08:12:21;;;;;;;0.98;0.90;;;;;;;39.91;29.00;99253.19;5049664;27;20215;-63
2023/07/19 08:14:50;;;;;;;0.85;0.70;;;;;;;39.89;29.97;99253.41;5102273;27;20615;-62
2023/07/19 08:17:16;;;;;;;0.70;0.70;;;;;;;39.31;29.49;99250.84;5050158;27;20220;-63
2023/07/19 08:19:46;;;;;;;0.88;0.85;;;;;;;39.15;29.68;99227.41;5091232;27;21848;-63
2023/07/19 08:22:25;;;;;;;0.60;0.60;;;;;;;39.35;29.00;99250.16;5090261;27;20220;-63
2023/07/19 08:24:52;;;;;;;0.88;0.88;;;;;;;39.58;30.02;99243.13;5051411;27;20738;-63
2023/07/19 08:27:19;;;;;;;0.65;0.63;;;;;;;39.89;30.36;99240.00;5093488;27;20193;-63
2023/07/19 08:29:46;;;;;;;0.60;0.60;;;;;;;39.89;27.75;99237.31;5052228;27;20205;-63
2023/07/19 08:32:14;;;;;;;0.60;0.60;;;;;;;39.59;29.13;99229.44;5048231;27;20204;-63
2023/07/19 08:34:41;;;;;;;0.85;0.82;;;;;;;39.01;28.83;99236.72;5096910;27;20273;-63
2023/07/19 08:37:08;;;;;;;0.60;0.60;;;;;;;39.25;28.73;99215.06;5060694;27;20192;-62
2023/07/19 08:39:34;;;;;;;0.98;0.98;;;;;;;39.32;28.12;99218.41;5066798;27;20582;-63
2023/07/19 08:42:02;;;;;;;0.77;0.70;;;;;;;39.60;28.70;99224.88;5081757;27;20588;-62
2023/07/19 08:44:29;;;;;;;0.65;0.65;;;;;;;39.50;26.76;99230.03;5083687;27;20240;-63
2023/07/19 08:46:57;;;;;;;0.77;0.77;;;;;;;39.74;28.55;99226.28;5075935;27;20205;-62
2023/07/19 08:49:25;;;;;;;0.65;0.65;;;;;;;39.83;27.28;99222.16;5064635;27;20189;-63
2023/07/19 08:51:53;;;;;;;0.70;0.70;;;;;;;40.02;28.55;99223.59;5096585;27;20189;-62
2023/07/19 08:54:19;;;;;;;1.08;0.88;;;;;;;39.69;27.65;99218.13;5083450;27;20197;-62
2023/07/19 08:56:46;;;;;;;0.80;0.80;;;;;;;39.54;28.19;99215.13;5066652;27;20193;-62
2023/07/19 08:59:13;;;;;;;0.80;0.80;;;;;;;39.79;28.96;99212.94;5065541;27;20573;-63
2023/07/19 09:01:40;;;;;;;0.63;0.60;;;;;;;39.46;28.56;99215.47;5074281;27;20577;-62
2023/07/19 09:04:09;;;;;;;0.60;0.60;;;;;;;39.65;27.91;99214.25;5076020;27;20212;-63
2023/07/19 09:06:37;;;;;;;0.70;0.70;;;;;;;39.73;27.78;99211.22;5068367;27;20288;-62
2023/07/19 09:09:04;;;;;;;0.43;0.43;;;;;;;39.99;29.01;99213.34;5080049;27;20235;-63
2023/07/19 09:11:31;;;;;;;1.23;1.23;;;;;;;40.05;26.89;99203.50;5062984;27;20201;-63
2023/07/19 09:13:59;;;;;;;0.68;0.68;;;;;;;40.03;27.17;99182.28;5084482;27;20197;-63
2023/07/19 09:16:28;;;;;;;0.88;0.77;;;;;;;40.11;27.58;99189.94;5064633;27;20586;-63
2023/07/19 09:18:55;;;;;;;0.63;0.63;;;;;;;40.26;26.50;99182.13;5068584;27;20271;-63
2023/07/19 09:21:38;;;;;;;2.97;0.90;;;;;;;40.39;28.17;99184.50;5077173;27;20581;-64
2023/07/19 09:24:08;;;;;;;0.60;0.60;;;;;;;40.51;27.09;99189.00;5076931;27;20246;-64
2023/07/19 09:26:45;;;;;;;0.85;0.70;;;;;;;40.30;27.66;99188.66;5060311;27;20208;-63
2023/07/19 09:29:12;;;;;;;0.57;0.57;;;;;;;40.13;27.60;99182.44;5059794;27;20284;-62
2023/07/19 09:31:53;;;;;;;0.75;0.75;;;;;;;40.33;27.16;99182.81;5058097;27;20201;-63
2023/07/19 09:34:21;;;;;;;0.60;0.60;;;;;;;40.32;27.42;99175.00;5044754;27;20197;-63
2023/07/19 09:36:51;;;;;;;2.22;0.90;;;;;;;40.50;26.84;99179.28;5073715;27;20287;-64
2023/07/19 09:39:18;;;;;;;0.90;0.90;;;;;;;40.59;27.07;99180.53;5043328;27;20208;-64
2023/07/19 09:41:46;;;;;;;1.20;1.10;;;;;;;40.43;26.27;99175.94;5079602;27;20664;-63
2023/07/19 09:44:15;;;;;;;0.70;0.70;;;;;;;40.41;28.48;99170.03;5054189;27;20284;-64
2023/07/19 09:46:42;;;;;;;5.15;0.70;;;;;;;40.64;27.92;99172.56;5062485;27;20201;-63
2023/07/19 09:49:09;;;;;;;0.90;0.90;;;;;;;40.72;29.86;99158.69;5092819;27;20208;-64
2023/07/19 09:51:36;;;;;;;0.93;0.80;;;;;;;40.83;26.80;99160.47;5088540;27;20254;-64
2023/07/19 09:54:09;;;;;;;3.15;0.95;;;;;;;40.65;26.11;99150.00;5057410;27;20262;-64
2023/07/19 09:56:36;;;;;;;0.80;0.80;;;;;;;40.85;26.11;99155.66;5080175;27;20780;-63
2023/07/19 09:59:05;;;;;;;1.15;0.85;;;;;;;41.01;26.34;99152.13;5088303;27;20201;-64
2023/07/19 10:01:33;;;;;;;0.82;0.82;;;;;;;41.22;27.30;99135.22;5090801;27;20198;-63
2023/07/19 10:03:59;;;;;;;2.88;0.70;;;;;;;41.24;26.50;99129.56;5046303;27;20209;-64
2023/07/19 10:06:30;;;;;;;1.65;1.10;;;;;;;41.34;26.30;99133.19;5048976;27;20227;-64
2023/07/19 10:09:30;;;;;;;2.05;1.95;;;;;;;40.98;24.94;99130.31;5087288;27;20312;-65
2023/07/19 10:12:01;;;;;;;0.52;0.52;;;;;;;41.12;26.28;99129.69;5094346;27;20261;-68
2023/07/19 10:14:30;;;;;;;0.70;0.70;;;;;;;41.05;24.46;99134.44;5069922;27;20287;-67
2023/07/19 10:16:58;;;;;;;0.65;0.65;;;;;;;40.80;24.65;99128.72;5084310;27;20241;-64
2023/07/19 10:19:26;;;;;;;2.15;0.80;;;;;;;40.79;25.11;99129.75;5099314;27;20204;-64
2023/07/19 10:22:04;;;;;;;1.20;1.10;;;;;;;40.96;24.61;99127.88;5070803;27;20686;-63
2023/07/19 10:24:31;;;;;;;0.65;0.65;;;;;;;40.94;27.06;99127.28;5095981;27;20707;-65
2023/07/19 10:27:02;;;;;;;0.77;0.77;;;;;;;41.00;26.49;99129.03;5094693;27;20204;-64
2023/07/19 10:29:39;;;;;;;0.70;0.70;;;;;;;41.05;24.88;99112.94;5076628;27;20234;-65
2023/07/19 10:32:07;;;;;;;0.80;0.80;;;;;;;41.12;27.26;99121.63;5096385;27;20612;-63
2023/07/19 10:34:34;;;;;;;1.85;0.55;;;;;;;41.19;25.98;99122.25;5059860;27;20258;-64
2023/07/19 10:37:03;;;;;;;0.60;0.60;;;;;;;41.08;24.01;99120.50;5083257;27;20204;-63
2023/07/19 10:39:30;;;;;;;0.60;0.60;;;;;;;41.15;23.28;99115.75;5070219;27;20200;-63
2023/07/19 10:41:57;;;;;;;0.98;0.70;;;;;;;40.86;25.28;99098.97;5076164;27;20217;-64
2023/07/19 10:44:26;;;;;;;0.70;0.70;;;;;;;41.02;25.14;99102.66;5050114;27;20205;-63
2023/07/19 10:46:53;;;;;;;0.60;0.60;;;;;;;41.20;23.04;99105.03;5066753;27;20697;-63
2023/07/19 10:49:21;;;;;;;0.70;0.70;;;;;;;41.14;25.53;99097.97;5050881;27;20756;-63
2023/07/19 10:51:55;;;;;;;0.80;0.80;;;;;;;41.11;25.28;99094.97;5072174;27;20205;-63
2023/07/19 10:54:22;;;;;;;0.47;0.47;;;;;;;41.12;23.41;99101.97;5048253;27;20208;-64
2023/07/19 10:56:50;;;;;;;0.70;0.70;;;;;;;41.00;23.37;99102.13;5065418;27;20204;-63
2023/07/19 10:59:17;;;;;;;0.77;0.77;;;;;;;40.94;24.61;99091.53;5060495;27;20232;-64
2023/07/19 11:01:48;;;;;;;0.77;0.77;;;;;;;40.67;23.35;99091.44;5063795;27;20293;-63
2023/07/19 11:04:18;;;;;;;0.70;0.70;;;;;;;40.65;25.04;99097.03;5066798;27;20209;-64
2023/07/19 11:06:55;;;;;;;0.77;0.77;;;;;;;40.93;27.95;99090.69;5054519;27;20237;-65
2023/07/19 11:09:23;;;;;;;0.77;0.77;;;;;;;40.97;23.96;99085.66;5065012;27;20629;-63
2023/07/19 11:11:51;;;;;;;0.60;0.60;;;;;;;40.97;24.35;99082.97;5060229;27;20206;-63
2023/07/19 11:14:30;;;;;;;0.50;0.50;;;;;;;41.01;23.28;99076.84;5044840;27;20197;-62
2023/07/19 11:16:59;;;;;;;0.43;0.43;;;;;;;40.99;23.49;99062.84;5071529;27;20320;-62
2023/07/19 11:19:37;;;;;;;0.70;0.70;;;;;;;40.89;23.17;99065.38;5093688;27;20205;-63
2023/07/19 11:22:04;;;;;;;0.80;0.80;;;;;;;41.01;23.37;99060.69;5090841;27;20212;-64
2023/07/19 11:24:39;;;;;;;0.68;0.68;;;;;;;41.19;23.97;99062.25;5111455;27;20197;-62
2023/07/19 11:27:06;;;;;;;0.52;0.52;;;;;;;41.34;22.27;99060.53;5089326;27;20200;-63
2023/07/19 11:29:34;;;;;;;1.17;0.90;;;;;;;41.10;23.02;99061.09;5089144;27;20202;-63
2023/07/19 11:32:18;;;;;;;0.60;0.60;;;;;;;41.04;24.28;99057.50;5063837;27;20592;-63
2023/07/19 11:34:46;;;;;;;0.55;0.55;;;;;;;40.84;24.10;99049.19;5049422;27;20207;-63
2023/07/19 11:37:18;;;;;;;0.70;0.70;;;;;;;40.96;24.05;99055.28;5073918;27;20244;-64